Silver Star Mountain, Canada
Current Conditions -  °F | °C
As of 10:19 PM on Saturday 20 Dec 2014 (Local Time) from CYLW Reporting Station
Light Rain Light Rain  
Wind Chill: 30°   Ceiling: 4500
Heat Index: 34°   Visibility: 4mi
Dew Point: 34°   Wind: 5mph
Humidity: 100%   Direction: 180°S
Pressure: 29.4"   Gusts: NA
Location:  50.36°N, 119.07°W
Report Text: CYLW 210619Z AUTO 18004KT 130V220 4SM -RA BR OVC045 01/01 A2940 RMK SLP969
Loading
Personal Weather Stations






























Interactive Weather Map New forecast layout! Learn more

10-Day Weather Forecast

Advertisements
Track Severe Weather on mobile